Time;durP1;ratioP1;P1;durP2;ratioP2;P2;SDS_P1;SDS_P2;PMS_P1;PMS_P2;Temp;Humidity;BMP_temperature;BMP_pressure;BME280_temperature;BME280_humidity;BME280_pressure;Samples;Min_cycle;Max_cycle;Signal;HPM_P1;HPM_P2
2022/03/05 00:00:08;;;;;;;6.57;2.25;;;19.30;51.10;;;;;;4545379;31;20131;-62
2022/03/05 00:02:34;;;;;;;5.85;2.28;;;19.30;51.10;;;;;;4546644;31;20209;-62
2022/03/05 00:05:00;;;;;;;6.03;1.95;;;19.20;51.10;;;;;;4545400;31;20120;-62
2022/03/05 00:07:29;;;;;;;3.40;2.10;;;19.20;51.10;;;;;;4546179;31;20139;-62
2022/03/05 00:09:55;;;;;;;4.57;1.80;;;19.20;51.20;;;;;;4545882;31;20128;-63
2022/03/05 00:12:21;;;;;;;4.25;1.98;;;19.20;51.20;;;;;;4531133;31;20196;-62
2022/03/05 00:14:47;;;;;;;3.88;2.00;;;19.20;51.20;;;;;;4546163;31;20143;-62
2022/03/05 00:17:13;;;;;;;4.28;1.80;;;19.10;51.10;;;;;;4530635;31;20116;-63
2022/03/05 00:19:39;;;;;;;4.40;1.88;;;19.10;51.10;;;;;;4546483;31;20536;-62
2022/03/05 00:22:05;;;;;;;3.85;1.90;;;19.20;51.20;;;;;;4545055;31;20252;-63
2022/03/05 00:24:31;;;;;;;3.97;1.88;;;19.10;51.20;;;;;;4546051;31;20273;-62
2022/03/05 00:26:57;;;;;;;4.88;2.17;;;19.10;51.20;;;;;;4545375;31;20123;-62
2022/03/05 00:29:25;;;;;;;3.00;1.70;;;19.10;51.20;;;;;;4545636;31;20104;-62
2022/03/05 00:31:51;;;;;;;4.65;2.00;;;19.00;51.20;;;;;;4545827;31;20123;-63
2022/03/05 00:34:17;;;;;;;4.60;2.00;;;19.00;51.20;;;;;;4545063;31;20127;-62
2022/03/05 00:36:43;;;;;;;3.28;1.67;;;19.00;51.20;;;;;;4546046;31;20144;-62
2022/03/05 00:39:08;;;;;;;3.65;1.50;;;19.00;51.20;;;;;;4544846;31;20139;-63
2022/03/05 00:41:34;;;;;;;3.17;1.73;;;19.00;51.20;;;;;;4545895;31;20127;-62
2022/03/05 00:44:00;;;;;;;3.00;1.50;;;18.90;51.20;;;;;;4545097;31;20911;-62
2022/03/05 00:46:26;;;;;;;3.65;1.75;;;18.90;51.30;;;;;;4545548;31;20124;-62
2022/03/05 00:48:52;;;;;;;2.35;1.73;;;18.90;52.20;;;;;;4545541;31;20262;-62
2022/03/05 00:51:19;;;;;;;4.68;1.90;;;18.90;51.30;;;;;;4544900;31;20257;-62
2022/03/05 00:53:45;;;;;;;4.00;1.95;;;18.90;51.30;;;;;;4545917;31;20135;-62
2022/03/05 00:56:11;;;;;;;2.78;1.45;;;18.80;51.20;;;;;;4544775;31;20131;-63
2022/03/05 00:58:36;;;;;;;2.53;1.55;;;18.90;51.30;;;;;;4545777;31;20115;-62
2022/03/05 01:01:02;;;;;;;5.30;1.88;;;18.80;51.20;;;;;;4544748;31;20273;-62
2022/03/05 01:03:29;;;;;;;3.30;2.10;;;18.80;51.30;;;;;;4530116;31;20128;-63
2022/03/05 01:05:54;;;;;;;3.13;1.85;;;18.80;51.30;;;;;;4545589;31;20135;-62
2022/03/05 01:08:20;;;;;;;2.88;1.40;;;18.80;51.30;;;;;;4544982;31;20286;-62
2022/03/05 01:10:46;;;;;;;3.25;1.58;;;18.70;51.30;;;;;;4545948;31;20653;-62
2022/03/05 01:13:13;;;;;;;3.30;1.70;;;18.70;51.30;;;;;;4544452;31;20112;-62
2022/03/05 01:15:39;;;;;;;6.30;1.85;;;18.70;51.30;;;;;;4545577;31;20140;-62
2022/03/05 01:18:05;;;;;;;3.38;1.73;;;18.70;51.30;;;;;;4530086;31;20154;-62
2022/03/05 01:20:31;;;;;;;2.83;1.70;;;18.70;51.30;;;;;;4545408;31;20161;-62
2022/03/05 01:22:57;;;;;;;3.20;1.60;;;18.70;51.30;;;;;;4545353;31;20139;-62
2022/03/05 01:25:23;;;;;;;2.63;1.60;;;18.70;51.30;;;;;;4544771;31;20123;-63
2022/03/05 01:27:49;;;;;;;5.53;1.70;;;18.60;51.30;;;;;;4531311;31;20120;-62
2022/03/05 01:30:15;;;;;;;2.75;1.27;;;18.60;51.20;;;;;;4544442;31;20596;-62
2022/03/05 01:32:41;;;;;;;2.75;1.40;;;18.60;51.30;;;;;;4531189;31;20220;-62
2022/03/05 01:35:07;;;;;;;1.83;1.35;;;18.60;51.30;;;;;;4544752;31;20136;-62
2022/03/05 01:37:33;;;;;;;2.85;1.40;;;18.60;51.30;;;;;;4545284;31;20143;-62
2022/03/05 01:39:59;;;;;;;3.30;1.52;;;18.60;51.30;;;;;;4544870;31;20123;-62
2022/03/05 01:42:25;;;;;;;3.17;1.40;;;18.60;51.30;;;;;;4544574;31;20131;-62
2022/03/05 01:44:51;;;;;;;3.05;1.50;;;18.60;51.30;;;;;;4545712;31;20464;-62
2022/03/05 01:47:17;;;;;;;2.42;1.40;;;18.60;51.30;;;;;;4544316;31;20239;-62
2022/03/05 01:49:43;;;;;;;3.28;1.50;;;18.50;51.20;;;;;;4545694;31;20269;-62
2022/03/05 01:52:09;;;;;;;2.63;1.35;;;18.50;51.20;;;;;;4544573;31;20131;-62
2022/03/05 01:54:35;;;;;;;3.03;1.75;;;18.50;51.20;;;;;;4545183;31;20132;-62
2022/03/05 01:57:02;;;;;;;3.55;1.35;;;18.50;51.20;;;;;;4544873;31;20500;-62
2022/03/05 01:59:28;;;;;;;2.15;1.50;;;18.50;51.20;;;;;;4544634;31;20142;-62
2022/03/05 02:01:54;;;;;;;2.85;1.35;;;18.50;51.30;;;;;;4545416;31;20142;-62
2022/03/05 02:04:20;;;;;;;3.67;1.63;;;18.50;51.20;;;;;;4544348;31;20142;-62
2022/03/05 02:06:47;;;;;;;1.73;0.98;;;18.40;51.20;;;;;;4545584;31;20575;-62
2022/03/05 02:09:13;;;;;;;2.05;1.20;;;18.40;51.20;;;;;;4544457;31;20295;-62
2022/03/05 02:11:39;;;;;;;2.47;1.35;;;18.40;51.20;;;;;;4545788;31;20349;-62
2022/03/05 02:14:05;;;;;;;2.17;1.20;;;18.40;51.20;;;;;;4547666;31;20127;-62
2022/03/05 02:16:32;;;;;;;1.65;1.20;;;18.40;51.20;;;;;;4547378;31;20150;-62
2022/03/05 02:18:58;;;;;;;3.60;1.83;;;18.40;51.20;;;;;;4548077;31;20141;-63
2022/03/05 02:21:26;;;;;;;2.58;1.30;;;18.40;51.30;;;;;;4547040;31;20538;-63
2022/03/05 02:23:52;;;;;;;4.13;1.40;;;18.40;51.30;;;;;;4548032;31;20124;-62
2022/03/05 02:26:18;;;;;;;2.55;1.40;;;18.40;51.20;;;;;;4546998;31;20111;-62
2022/03/05 02:28:44;;;;;;;2.95;1.50;;;18.30;51.20;;;;;;4547824;31;20138;-62
2022/03/05 02:31:10;;;;;;;1.80;1.30;;;18.30;51.10;;;;;;4547183;31;20123;-62
2022/03/05 02:33:37;;;;;;;2.53;1.30;;;18.30;51.20;;;;;;4547323;31;20269;-62
2022/03/05 02:36:04;;;;;;;3.15;1.60;;;18.30;51.20;;;;;;4547799;31;20542;-63
2022/03/05 02:38:30;;;;;;;1.88;1.20;;;18.30;51.20;;;;;;4546658;31;20135;-63
2022/03/05 02:40:56;;;;;;;2.28;1.33;;;18.20;51.20;;;;;;4547955;31;20134;-63
2022/03/05 02:43:22;;;;;;;3.90;1.15;;;18.30;51.20;;;;;;4546405;31;20189;-62
2022/03/05 02:45:49;;;;;;;2.45;1.52;;;18.20;51.20;;;;;;4547671;31;20196;-62
2022/03/05 02:48:17;;;;;;;1.45;1.10;;;18.30;51.30;;;;;;4546885;31;20136;-62
2022/03/05 02:50:44;;;;;;;2.20;1.00;;;18.20;51.20;;;;;;4547370;31;20135;-62
2022/03/05 02:53:09;;;;;;;1.60;1.20;;;18.20;51.20;;;;;;4547553;31;20143;-62
2022/03/05 02:55:36;;;;;;;2.92;1.33;;;18.20;51.20;;;;;;4546596;31;20115;-62
2022/03/05 02:58:02;;;;;;;1.02;0.93;;;18.20;51.20;;;;;;4547692;31;20536;-62
2022/03/05 03:00:28;;;;;;;1.77;1.13;;;18.20;51.20;;;;;;4546385;31;20123;-62
2022/03/05 03:02:54;;;;;;;1.85;1.05;;;18.20;51.20;;;;;;4547549;31;20180;-62
2022/03/05 03:05:21;;;;;;;1.88;1.08;;;18.20;51.20;;;;;;4546543;31;20141;-63
2022/03/05 03:07:47;;;;;;;2.08;1.00;;;18.10;51.20;;;;;;4546913;31;20146;-62
2022/03/05 03:10:15;;;;;;;4.65;1.40;;;18.10;51.20;;;;;;4547175;31;20153;-62
2022/03/05 03:12:42;;;;;;;1.35;1.15;;;18.10;51.20;;;;;;4546176;31;20542;-63
2022/03/05 03:15:11;;;;;;;1.73;1.10;;;18.10;51.20;;;;;;4547362;31;20127;-62
2022/03/05 03:17:48;;;;;;;1.92;1.15;;;18.10;51.20;;;;;;4545921;31;20131;-63
2022/03/05 03:20:18;;;;;;;1.65;1.10;;;18.10;51.20;;;;;;4546992;31;20262;-62
2022/03/05 03:22:45;;;;;;;2.45;1.13;;;18.10;52.20;;;;;;4546162;31;20191;-62
2022/03/05 03:25:11;;;;;;;2.08;1.15;;;18.10;51.30;;;;;;4546680;31;20127;-63
2022/03/05 03:27:37;;;;;;;1.90;1.20;;;18.00;51.20;;;;;;4547043;31;20282;-62
2022/03/05 03:30:04;;;;;;;2.15;1.30;;;18.00;51.20;;;;;;4545817;31;20136;-62
2022/03/05 03:32:30;;;;;;;1.60;1.30;;;18.00;51.20;;;;;;4547286;31;20120;-62
2022/03/05 03:34:56;;;;;;;2.85;1.17;;;18.00;51.20;;;;;;4545834;31;20138;-62
2022/03/05 03:37:22;;;;;;;2.17;1.25;;;18.00;51.20;;;;;;4546619;31;20137;-62
2022/03/05 03:39:48;;;;;;;2.25;1.20;;;18.00;51.20;;;;;;4546272;31;20142;-62
2022/03/05 03:42:15;;;;;;;2.25;1.10;;;17.90;51.20;;;;;;4546060;31;20182;-62
2022/03/05 03:44:41;;;;;;;2.20;0.93;;;17.90;51.20;;;;;;4546814;31;20142;-62
2022/03/05 03:47:07;;;;;;;1.23;1.05;;;17.90;51.30;;;;;;4545736;31;20131;-62
2022/03/05 03:49:33;;;;;;;1.10;0.80;;;17.90;51.30;;;;;;4546946;31;20128;-62
2022/03/05 03:51:59;;;;;;;2.20;1.20;;;17.90;52.10;;;;;;4545938;31;20142;-62
2022/03/05 03:54:25;;;;;;;2.30;1.33;;;17.90;51.20;;;;;;4546602;31;20138;-62
2022/03/05 03:56:50;;;;;;;2.38;1.30;;;17.90;51.20;;;;;;4545662;31;20273;-62
2022/03/05 03:59:16;;;;;;;2.22;1.38;;;17.80;51.20;;;;;;4545937;31;20147;-62
2022/03/05 04:01:42;;;;;;;2.22;1.20;;;17.90;51.20;;;;;;4546408;31;20130;-62
2022/03/05 04:04:08;;;;;;;1.70;1.08;;;17.90;51.30;;;;;;4545572;31;20116;-62
2022/03/05 04:09:18;;;;;;;1.25;1.08;;;17.80;51.20;;;;;;4545603;31;20149;-62
2022/03/05 04:11:44;;;;;;;1.33;0.90;;;17.80;51.20;;;;;;4545884;31;20184;-62
2022/03/05 04:14:10;;;;;;;2.45;1.00;;;17.80;51.20;;;;;;4545904;31;20128;-62
2022/03/05 04:16:36;;;;;;;1.77;1.10;;;17.80;51.20;;;;;;4545782;31;20112;-62
2022/03/05 04:19:02;;;;;;;1.90;1.05;;;17.80;51.20;;;;;;4546238;31;20281;-62
2022/03/05 04:21:28;;;;;;;1.45;1.05;;;17.80;51.20;;;;;;4544934;31;20123;-62
2022/03/05 04:23:54;;;;;;;1.38;0.95;;;17.80;51.20;;;;;;4531752;31;20124;-62
2022/03/05 04:26:20;;;;;;;2.70;1.08;;;17.80;51.30;;;;;;4545146;31;20166;-62
2022/03/05 04:28:46;;;;;;;1.15;0.90;;;17.70;51.20;;;;;;4545988;31;20231;-62
2022/03/05 04:31:12;;;;;;;1.52;1.10;;;17.70;51.30;;;;;;4545671;31;20138;-62
2022/03/05 04:33:38;;;;;;;2.42;0.90;;;17.70;51.20;;;;;;4530646;31;20123;-62
2022/03/05 04:36:04;;;;;;;1.60;0.98;;;17.70;51.20;;;;;;4545913;31;20171;-62
2022/03/05 04:38:30;;;;;;;1.52;0.90;;;17.70;51.20;;;;;;4544815;31;20189;-63
2022/03/05 04:40:56;;;;;;;2.70;1.20;;;17.70;51.10;;;;;;4546124;31;20261;-62
2022/03/05 04:43:22;;;;;;;1.48;0.80;;;17.70;51.20;;;;;;4544742;31;20127;-62
2022/03/05 04:45:48;;;;;;;2.90;1.10;;;17.70;51.20;;;;;;4545994;31;20124;-62
2022/03/05 04:48:14;;;;;;;1.70;0.90;;;17.60;51.20;;;;;;4545329;31;20133;-62
2022/03/05 04:50:40;;;;;;;1.65;1.10;;;17.70;51.30;;;;;;4545400;31;20123;-62
2022/03/05 04:53:06;;;;;;;1.75;0.75;;;17.60;51.20;;;;;;4545884;31;20108;-62
2022/03/05 04:55:32;;;;;;;0.98;0.80;;;17.60;51.20;;;;;;4544830;31;20126;-62
2022/03/05 04:57:58;;;;;;;2.13;0.90;;;17.60;51.20;;;;;;4545834;31;20139;-62
2022/03/05 05:00:24;;;;;;;1.35;0.90;;;17.60;51.20;;;;;;4544761;31;20461;-62
2022/03/05 05:02:49;;;;;;;1.60;0.93;;;17.60;51.20;;;;;;4545770;31;20139;-62
2022/03/05 05:05:15;;;;;;;1.30;0.98;;;17.60;51.20;;;;;;4544863;31;20131;-62
2022/03/05 05:07:41;;;;;;;1.30;0.73;;;17.50;51.10;;;;;;4545494;31;20143;-62
2022/03/05 05:10:07;;;;;;;1.25;1.00;;;17.50;51.20;;;;;;4545595;31;20123;-61
2022/03/05 05:12:33;;;;;;;1.42;1.00;;;17.50;51.20;;;;;;4544652;31;20140;-62
2022/03/05 05:14:59;;;;;;;1.25;0.80;;;17.50;51.20;;;;;;4545975;31;20115;-62
2022/03/05 05:17:25;;;;;;;1.95;0.90;;;17.50;51.20;;;;;;4543644;31;20111;-62
2022/03/05 05:19:52;;;;;;;1.23;0.70;;;17.50;51.30;;;;;;4530496;31;20154;-62
2022/03/05 05:22:18;;;;;;;1.20;0.80;;;17.50;51.30;;;;;;4543893;31;20127;-62
2022/03/05 05:24:43;;;;;;;1.08;0.90;;;17.50;51.30;;;;;;4543280;31;20138;-62
2022/03/05 05:27:09;;;;;;;1.95;0.90;;;17.50;51.30;;;;;;4542974;31;20250;-62
2022/03/05 05:29:35;;;;;;;2.47;0.98;;;17.40;51.20;;;;;;4529601;31;20135;-62
2022/03/05 05:32:01;;;;;;;1.40;0.85;;;17.50;51.30;;;;;;4545036;31;20127;-62
2022/03/05 05:34:28;;;;;;;1.38;0.80;;;17.40;51.20;;;;;;4544177;31;20220;-62
2022/03/05 05:36:54;;;;;;;1.23;0.90;;;17.40;51.20;;;;;;4545750;31;20128;-62
2022/03/05 05:39:20;;;;;;;0.80;0.70;;;17.40;51.20;;;;;;4544509;31;20141;-62
2022/03/05 05:41:46;;;;;;;1.40;1.10;;;17.40;51.20;;;;;;4545005;31;20139;-62
2022/03/05 05:44:12;;;;;;;1.00;0.70;;;17.40;51.20;;;;;;4543877;31;20147;-62
2022/03/05 05:46:38;;;;;;;2.15;0.93;;;17.40;51.30;;;;;;4545719;31;20155;-63
2022/03/05 05:49:04;;;;;;;2.05;1.13;;;17.40;51.30;;;;;;4547995;31;20290;-62
2022/03/05 05:51:32;;;;;;;1.10;0.73;;;17.40;51.30;;;;;;4546876;31;20468;-62
2022/03/05 05:53:58;;;;;;;1.50;0.90;;;17.40;51.30;;;;;;4547917;31;20139;-63
2022/03/05 05:56:25;;;;;;;1.33;0.90;;;17.30;51.20;;;;;;4546863;31;20163;-62
2022/03/05 05:58:51;;;;;;;1.17;0.73;;;17.30;51.20;;;;;;4547488;31;20285;-62
2022/03/05 06:01:17;;;;;;;1.27;0.95;;;17.30;51.30;;;;;;4547273;31;20183;-62
2022/03/05 06:03:45;;;;;;;1.02;0.70;;;17.30;51.30;;;;;;4547387;31;20127;-62
2022/03/05 06:06:12;;;;;;;1.73;1.00;;;17.30;51.20;;;;;;4548414;31;20116;-62
2022/03/05 06:08:38;;;;;;;1.20;0.82;;;17.30;51.30;;;;;;4547306;31;20324;-62
2022/03/05 06:11:04;;;;;;;1.25;0.90;;;17.30;51.30;;;;;;4548547;31;20127;-62
2022/03/05 06:13:29;;;;;;;1.73;1.02;;;17.30;51.30;;;;;;4546951;31;20123;-62
2022/03/05 06:15:55;;;;;;;1.10;0.80;;;17.30;51.30;;;;;;4547880;31;20189;-62
2022/03/05 06:18:21;;;;;;;0.90;0.70;;;17.30;51.30;;;;;;4547494;31;20120;-62
2022/03/05 06:20:49;;;;;;;1.52;0.85;;;17.30;51.30;;;;;;4547526;31;20158;-62
2022/03/05 06:23:15;;;;;;;1.20;0.70;;;17.20;51.20;;;;;;4548191;31;20134;-62
2022/03/05 06:25:40;;;;;;;1.63;0.90;;;17.20;51.30;;;;;;4546989;31;20437;-62
2022/03/05 06:28:06;;;;;;;1.10;0.73;;;17.20;51.30;;;;;;4548191;31;20136;-63
2022/03/05 06:30:32;;;;;;;1.80;0.90;;;17.20;51.30;;;;;;4532463;31;20119;-62
2022/03/05 06:32:58;;;;;;;1.15;0.65;;;17.20;51.30;;;;;;4547906;31;20138;-62
2022/03/05 06:35:24;;;;;;;1.45;0.82;;;17.20;51.30;;;;;;4547234;31;20124;-62
2022/03/05 06:37:50;;;;;;;0.70;0.60;;;17.20;51.30;;;;;;4547172;31;20143;-62
2022/03/05 06:40:16;;;;;;;1.13;0.70;;;17.10;51.30;;;;;;4547632;31;20538;-62
2022/03/05 06:42:42;;;;;;;1.45;0.98;;;17.10;51.30;;;;;;4546517;31;20553;-62
2022/03/05 06:45:09;;;;;;;1.20;0.70;;;17.10;51.30;;;;;;4547869;31;20269;-63
2022/03/05 06:47:36;;;;;;;1.45;0.80;;;17.10;51.30;;;;;;4546670;31;20152;-63
2022/03/05 06:50:04;;;;;;;2.83;0.90;;;17.10;51.30;;;;;;4547655;31;20647;-62
2022/03/05 06:52:30;;;;;;;1.17;0.80;;;17.10;51.30;;;;;;4532475;31;20124;-62
2022/03/05 06:54:57;;;;;;;1.02;0.73;;;17.10;51.30;;;;;;4547206;31;20219;-62
2022/03/05 06:57:24;;;;;;;1.60;0.80;;;17.10;51.30;;;;;;4546098;31;20137;-62
2022/03/05 06:59:50;;;;;;;1.23;0.80;;;17.10;51.60;;;;;;4545855;31;20135;-62
2022/03/05 07:02:16;;;;;;;1.30;0.80;;;17.00;51.30;;;;;;4547030;31;20188;-62
2022/03/05 07:04:41;;;;;;;1.05;0.77;;;17.00;51.30;;;;;;4545706;31;20143;-62
2022/03/05 07:07:07;;;;;;;0.80;0.60;;;17.00;51.30;;;;;;4547191;31;20178;-62
2022/03/05 07:09:33;;;;;;;1.15;0.80;;;17.10;52.30;;;;;;4546718;31;20208;-62
2022/03/05 07:12:00;;;;;;;0.95;0.73;;;17.00;51.30;;;;;;4546075;31;20302;-62
2022/03/05 07:14:26;;;;;;;1.00;0.90;;;17.00;51.40;;;;;;4546712;31;20561;-62
2022/03/05 07:16:52;;;;;;;0.90;0.70;;;17.00;51.30;;;;;;4545540;31;20150;-62
2022/03/05 07:19:18;;;;;;;0.70;0.70;;;17.00;51.30;;;;;;4546952;31;20115;-62
2022/03/05 07:21:45;;;;;;;0.88;0.60;;;17.00;51.30;;;;;;4545979;31;20149;-62
2022/03/05 07:24:11;;;;;;;0.90;0.70;;;17.00;51.30;;;;;;4547197;31;20460;-62
2022/03/05 07:26:37;;;;;;;1.10;0.80;;;17.00;51.40;;;;;;4546287;31;20123;-62
2022/03/05 07:29:03;;;;;;;1.35;0.75;;;17.00;51.30;;;;;;4546874;31;20667;-62
2022/03/05 07:31:29;;;;;;;1.50;0.90;;;16.90;51.30;;;;;;4546845;31;20103;-62
2022/03/05 07:33:55;;;;;;;0.85;0.70;;;17.00;51.40;;;;;;4546145;31;20128;-62
2022/03/05 07:36:21;;;;;;;1.40;0.80;;;16.90;51.30;;;;;;4547203;31;20122;-63
2022/03/05 07:38:46;;;;;;;1.13;0.65;;;16.90;51.40;;;;;;4545612;31;20123;-62
2022/03/05 07:41:13;;;;;;;1.33;0.73;;;16.90;51.40;;;;;;4547039;31;20136;-62
2022/03/05 07:43:39;;;;;;;0.93;0.70;;;16.90;51.40;;;;;;4531181;31;20302;-62
2022/03/05 07:46:05;;;;;;;1.63;0.70;;;16.90;51.40;;;;;;4546555;31;20232;-62
2022/03/05 07:48:32;;;;;;;1.55;0.70;;;16.90;51.40;;;;;;4546397;31;20226;-63
2022/03/05 07:50:59;;;;;;;2.10;0.85;;;16.90;51.40;;;;;;4545934;31;20186;-62
2022/03/05 07:53:31;;;;;;;2.45;1.00;;;16.90;51.40;;;;;;4546851;31;20135;-62
2022/03/05 07:55:57;;;;;;;1.85;0.88;;;16.90;51.40;;;;;;4545684;31;20131;-63
2022/03/05 07:58:23;;;;;;;1.45;0.80;;;16.90;51.40;;;;;;4546624;31;20144;-62
2022/03/05 08:00:49;;;;;;;1.15;0.73;;;16.90;51.40;;;;;;4545860;31;20215;-62
2022/03/05 08:03:15;;;;;;;1.35;0.60;;;16.90;51.40;;;;;;4546324;31;20120;-62
2022/03/05 08:05:43;;;;;;;0.75;0.75;;;16.90;51.40;;;;;;4545746;31;20135;-62
2022/03/05 08:08:10;;;;;;;1.45;0.80;;;16.90;51.40;;;;;;4544899;31;20155;-62
2022/03/05 08:10:36;;;;;;;1.20;0.73;;;16.90;51.40;;;;;;4543439;31;20674;-62
2022/03/05 08:13:03;;;;;;;0.90;0.68;;;16.90;51.30;;;;;;4543301;31;20158;-62
2022/03/05 08:15:29;;;;;;;0.80;0.63;;;16.90;51.30;;;;;;4530178;31;20138;-62
2022/03/05 08:18:00;;;;;;;1.38;0.80;;;16.90;51.30;;;;;;4544082;31;20151;-62
2022/03/05 08:20:30;;;;;;;0.93;0.75;;;16.90;51.30;;;;;;4544709;31;20139;-62
2022/03/05 08:22:58;;;;;;;1.63;0.85;;;16.90;51.20;;;;;;4544685;31;20166;-62
2022/03/05 08:25:25;;;;;;;0.65;0.63;;;16.90;51.30;;;;;;4527656;31;20135;-62
2022/03/05 08:27:51;;;;;;;1.08;0.73;;;16.90;51.30;;;;;;4544720;31;20127;-62
2022/03/05 08:30:18;;;;;;;1.15;0.88;;;16.90;51.20;;;;;;4543755;31;20222;-62
2022/03/05 08:32:44;;;;;;;0.88;0.60;;;16.90;51.20;;;;;;4544678;31;20316;-62
2022/03/05 08:35:11;;;;;;;0.85;0.55;;;16.90;51.20;;;;;;4544043;31;20115;-62
2022/03/05 08:37:38;;;;;;;0.77;0.70;;;16.90;51.30;;;;;;4545072;31;20212;-62
2022/03/05 08:40:07;;;;;;;1.25;0.65;;;16.90;51.20;;;;;;4545113;31;20163;-61
2022/03/05 08:42:34;;;;;;;2.40;0.80;;;16.90;51.30;;;;;;4544218;31;20135;-61
2022/03/05 08:45:00;;;;;;;3.33;2.42;;;16.90;51.10;;;;;;4545398;31;20139;-61
2022/03/05 08:47:26;;;;;;;4.97;2.97;;;16.90;49.70;;;;;;4544393;31;20132;-62
2022/03/05 08:49:52;;;;;;;5.60;4.05;;;16.90;48.10;;;;;;4545976;31;20180;-61
2022/03/05 08:52:17;;;;;;;4.78;4.07;;;16.90;46.60;;;;;;4545056;31;20130;-60
2022/03/05 08:54:43;;;;;;;5.65;4.22;;;16.90;45.30;;;;;;4545683;31;20100;-61
2022/03/05 08:57:11;;;;;;;5.28;3.70;;;16.90;45.50;;;;;;4545455;31;20640;-61
2022/03/05 08:59:38;;;;;;;4.95;3.67;;;16.80;45.80;;;;;;4545092;31;20127;-62
2022/03/05 09:02:04;;;;;;;5.25;3.70;;;16.80;46.00;;;;;;4546128;31;20750;-61
2022/03/05 09:04:31;;;;;;;6.88;4.15;;;16.80;46.20;;;;;;4544739;31;20143;-61
2022/03/05 09:06:57;;;;;;;4.30;3.25;;;16.80;46.40;;;;;;4545727;31;20731;-61
2022/03/05 09:09:23;;;;;;;4.35;3.42;;;16.80;46.60;;;;;;4544990;31;20123;-62
2022/03/05 09:11:50;;;;;;;4.75;3.38;;;16.80;46.80;;;;;;4544492;31;20154;-61
2022/03/05 09:14:16;;;;;;;6.32;3.13;;;16.90;47.00;;;;;;4544855;31;20147;-61
2022/03/05 09:16:42;;;;;;;5.03;3.10;;;16.90;47.10;;;;;;4544568;31;20135;-61
2022/03/05 09:19:08;;;;;;;4.07;2.50;;;16.90;47.20;;;;;;4545907;31;20111;-63
2022/03/05 09:21:35;;;;;;;4.15;2.72;;;17.00;47.40;;;;;;4546725;31;20150;-61
2022/03/05 09:24:06;;;;;;;4.75;2.47;;;17.00;47.40;;;;;;4548913;31;20138;-61
2022/03/05 09:26:32;;;;;;;3.40;2.25;;;17.10;47.50;;;;;;4548131;31;20138;-62
2022/03/05 09:28:58;;;;;;;4.70;2.10;;;17.20;47.60;;;;;;4548480;31;20142;-61
2022/03/05 09:31:25;;;;;;;5.45;2.15;;;17.20;47.50;;;;;;4548659;31;20190;-61
2022/03/05 09:33:51;;;;;;;2.95;1.88;;;17.40;47.50;;;;;;4547798;31;20266;-62
2022/03/05 09:36:17;;;;;;;3.50;1.80;;;17.50;47.50;;;;;;4549100;31;20149;-63
2022/03/05 09:38:43;;;;;;;3.35;1.70;;;17.60;47.60;;;;;;4547323;31;20123;-62
2022/03/05 09:41:09;;;;;;;4.55;1.67;;;17.70;47.40;;;;;;4548645;31;20188;-62
2022/03/05 09:43:35;;;;;;;4.72;1.50;;;17.90;47.30;;;;;;4547642;31;20139;-62
2022/03/05 09:46:02;;;;;;;4.07;2.22;;;18.00;47.20;;;;;;4548327;31;20119;-63
2022/03/05 09:48:30;;;;;;;3.30;1.80;;;18.10;47.00;;;;;;4548363;31;20193;-62
2022/03/05 09:50:57;;;;;;;5.88;2.00;;;18.20;46.70;;;;;;4547586;31;20127;-63
2022/03/05 09:53:31;;;;;;;3.22;1.48;;;18.40;46.70;;;;;;4548784;31;20135;-63
2022/03/05 09:55:57;;;;;;;4.30;1.38;;;18.50;46.40;;;;;;4547520;31;20580;-61
2022/03/05 09:58:23;;;;;;;3.47;1.70;;;18.60;46.30;;;;;;4547826;31;20124;-61
2022/03/05 10:00:50;;;;;;;6.05;2.97;;;18.70;46.20;;;;;;4547680;31;20141;-61
2022/03/05 10:03:16;;;;;;;6.55;3.67;;;18.80;45.10;;;;;;4548009;31;20306;-61
2022/03/05 10:05:42;;;;;;;4.63;3.03;;;18.90;43.50;;;;;;4548358;31;20204;-62
2022/03/05 10:08:15;;;;;;;5.22;3.45;;;18.80;42.00;;;;;;4547434;31;20124;-63
2022/03/05 10:11:01;;;;;;;5.90;2.55;;;18.90;41.30;;;;;;4548628;31;20132;-62
2022/03/05 10:13:32;;;;;;;3.25;2.30;;;19.00;41.20;;;;;;4547235;31;20140;-61
2022/03/05 10:16:00;;;;;;;3.00;2.10;;;19.10;41.10;;;;;;4547945;31;20190;-62
2022/03/05 10:18:37;;;;;;;3.30;2.08;;;19.20;41.00;;;;;;4547893;31;20208;-61
2022/03/05 10:21:05;;;;;;;7.30;2.13;;;19.30;41.00;;;;;;4546154;31;20258;-62
2022/03/05 10:23:36;;;;;;;4.53;2.00;;;19.40;41.10;;;;;;4533569;31;20239;-62
2022/03/05 10:26:08;;;;;;;6.82;2.10;;;19.50;41.20;;;;;;4546478;31;20501;-62
2022/03/05 10:28:35;;;;;;;7.13;1.90;;;19.60;41.20;;;;;;4531640;31;20654;-61
2022/03/05 10:31:07;;;;;;;7.28;2.00;;;19.70;41.10;;;;;;4529362;31;20131;-61
2022/03/05 10:33:36;;;;;;;4.38;1.55;;;19.80;41.10;;;;;;4545743;31;20135;-62
2022/03/05 10:36:05;;;;;;;4.28;1.60;;;19.90;41.10;;;;;;4548099;31;20145;-61
2022/03/05 10:38:51;;;;;;;2.95;1.58;;;20.00;41.20;;;;;;4515539;31;20124;-62
2022/03/05 10:41:19;;;;;;;4.72;1.50;;;20.10;41.30;;;;;;4529548;31;20146;-61
2022/03/05 10:43:47;;;;;;;3.65;1.65;;;20.20;41.20;;;;;;4529550;31;20139;-61
2022/03/05 10:46:13;;;;;;;4.53;1.30;;;20.30;41.10;;;;;;4530183;31;20143;-60
2022/03/05 10:48:42;;;;;;;3.30;1.65;;;20.40;41.10;;;;;;4530978;31;20150;-61
2022/03/05 10:51:17;;;;;;;2.67;1.15;;;20.50;41.10;;;;;;4529804;31;20337;-61
2022/03/05 10:53:44;;;;;;;4.30;1.23;;;20.60;41.00;;;;;;4531044;31;20142;-61
2022/03/05 10:56:39;;;;;;;6.45;1.80;;;20.70;40.90;;;;;;4528826;31;20163;-61
2022/03/05 10:59:16;;;;;;;2.85;1.30;;;20.70;41.00;;;;;;4516528;31;20146;-61
2022/03/05 11:01:43;;;;;;;4.00;1.27;;;20.80;41.00;;;;;;4530735;31;20220;-61
2022/03/05 11:04:11;;;;;;;6.97;1.65;;;20.70;41.00;;;;;;4527299;31;20250;-61
2022/03/05 11:06:40;;;;;;;5.28;1.50;;;20.70;42.20;;;;;;4530825;31;20147;-61
2022/03/05 11:09:09;;;;;;;5.47;1.40;;;20.60;41.40;;;;;;4529837;31;20131;-61
2022/03/05 11:11:38;;;;;;;5.40;1.50;;;20.60;41.60;;;;;;4530456;31;20189;-61
2022/03/05 11:14:06;;;;;;;4.50;2.38;;;20.50;41.60;;;;;;4530086;31;20182;-60
2022/03/05 11:16:33;;;;;;;5.25;1.98;;;20.40;41.60;;;;;;4529351;31;20124;-61
2022/03/05 11:18:58;;;;;;;3.50;1.50;;;20.40;41.50;;;;;;4530569;31;20141;-61
2022/03/05 11:21:28;;;;;;;5.07;1.80;;;20.40;41.50;;;;;;4528482;31;20116;-62
2022/03/05 11:23:57;;;;;;;7.88;1.98;;;20.40;41.50;;;;;;4531069;31;20175;-62
2022/03/05 11:26:25;;;;;;;4.50;1.65;;;20.40;41.50;;;;;;4530295;31;20226;-62
2022/03/05 11:28:51;;;;;;;6.05;1.75;;;20.40;41.50;;;;;;4530661;31;20116;-62
2022/03/05 11:31:31;;;;;;;4.60;1.60;;;20.40;41.60;;;;;;4530612;31;20128;-62
2022/03/05 11:34:14;;;;;;;3.20;1.60;;;20.30;41.70;;;;;;4528874;31;20116;-62
2022/03/05 11:36:41;;;;;;;3.28;1.88;;;20.20;42.00;;;;;;4531111;31;20140;-63
2022/03/05 11:39:11;;;;;;;3.78;1.60;;;20.20;42.20;;;;;;4538163;31;20124;-64
2022/03/05 11:42:04;;;;;;;3.72;1.52;;;20.10;42.50;;;;;;4546706;31;20189;-61
2022/03/05 11:44:36;;;;;;;4.57;1.52;;;20.00;42.90;;;;;;4546460;31;20603;-62
2022/03/05 11:47:25;;;;;;;3.55;1.38;;;19.90;43.20;;;;;;4545964;31;20127;-62
2022/03/05 11:49:59;;;;;;;8.98;1.65;;;19.80;43.60;;;;;;4536324;31;20527;-62
2022/03/05 11:52:43;;;;;;;5.88;1.45;;;19.70;43.90;;;;;;4546135;31;20119;-62
2022/03/05 11:55:15;;;;;;;8.55;1.50;;;19.70;44.30;;;;;;4546048;31;20143;-62
2022/03/05 11:57:43;;;;;;;4.30;1.50;;;19.70;44.60;;;;;;4546806;31;20343;-62
2022/03/05 12:00:10;;;;;;;4.40;1.75;;;19.70;44.80;;;;;;4545467;31;20150;-63
2022/03/05 12:02:44;;;;;;;4.97;1.35;;;19.70;44.90;;;;;;4531993;31;20127;-62
2022/03/05 12:05:29;;;;;;;4.13;1.20;;;19.70;45.00;;;;;;4545873;31;20116;-62
2022/03/05 12:07:55;;;;;;;5.43;1.50;;;19.80;45.10;;;;;;4545645;31;20146;-62
2022/03/05 12:10:21;;;;;;;4.03;1.40;;;19.90;45.10;;;;;;4546853;31;20127;-61
2022/03/05 12:12:54;;;;;;;5.57;1.60;;;19.90;45.10;;;;;;4545043;31;20558;-62
2022/03/05 12:15:42;;;;;;;3.78;1.27;;;20.00;45.10;;;;;;4546372;31;20135;-62
2022/03/05 12:18:12;;;;;;;4.25;1.20;;;20.10;45.10;;;;;;4545612;31;20517;-62
2022/03/05 12:20:40;;;;;;;4.15;1.50;;;20.20;45.00;;;;;;4545956;31;20120;-62
2022/03/05 12:23:15;;;;;;;3.25;1.60;;;20.30;45.00;;;;;;4546220;31;20190;-62
2022/03/05 12:25:44;;;;;;;5.47;1.52;;;20.40;44.90;;;;;;4545218;31;20141;-60
2022/03/05 12:28:19;;;;;;;6.35;3.13;;;20.50;44.80;;;;;;4546328;31;20278;-62
2022/03/05 12:30:45;;;;;;;5.90;2.30;;;20.40;42.90;;;;;;4545368;31;20224;-62
2022/03/05 12:33:14;;;;;;;3.70;2.53;;;20.40;42.30;;;;;;4545939;31;20273;-62
2022/03/05 12:35:42;;;;;;;7.63;2.25;;;20.40;41.70;;;;;;4531034;31;20159;-62
2022/03/05 12:38:09;;;;;;;7.20;2.30;;;20.50;41.40;;;;;;4544289;31;20146;-62
2022/03/05 12:40:36;;;;;;;4.38;1.67;;;20.50;41.30;;;;;;4544909;31;20282;-62
2022/03/05 12:43:05;;;;;;;4.35;2.10;;;20.60;41.30;;;;;;4528968;31;20182;-62
2022/03/05 12:45:37;;;;;;;7.32;2.33;;;20.60;41.20;;;;;;4544507;31;20151;-63
2022/03/05 12:48:17;;;;;;;3.60;1.80;;;20.80;42.20;;;;;;4530152;31;20128;-62
2022/03/05 12:50:48;;;;;;;4.80;1.77;;;20.90;41.30;;;;;;4544647;31;20127;-62